Time;durP1;ratioP1;P1;durP2;ratioP2;P2;SDS_P1;SDS_P2;PMS_P1;PMS_P2;Temp;Humidity;BMP_temperature;BMP_pressure;BME280_temperature;BME280_humidity;BME280_pressure;Samples;Min_cycle;Max_cycle;Signal;HPM_P1;HPM_P2
2021/04/06 00:02:27;;;;;;;4.38;1.50;;;0.90;1.00;;;;;;5093841;28;21096;-75
2021/04/06 00:04:57;;;;;;;5.88;1.73;;;0.90;1.00;;;;;;5059221;28;20225;-77
2021/04/06 00:07:24;;;;;;;2.60;1.75;;;0.80;1.00;;;;;;5090114;28;20605;-75
2021/04/06 00:09:53;;;;;;;5.00;1.90;;;0.90;1.00;;;;;;5079988;27;20477;-76
2021/04/06 00:12:20;;;;;;;3.85;1.90;;;0.80;1.00;;;;;;5092214;28;20232;-77
2021/04/06 00:14:50;;;;;;;4.28;1.70;;;0.90;1.00;;;;;;5081555;28;20280;-74
2021/04/06 00:17:17;;;;;;;6.47;2.53;;;0.90;1.00;;;;;;5091695;28;20327;-77
2021/04/06 00:19:46;;;;;;;3.63;2.10;;;0.80;1.00;;;;;;5064088;28;20228;-75
2021/04/06 00:22:18;;;;;;;3.03;1.80;;;0.80;1.00;;;;;;5087861;28;20226;-74
2021/04/06 00:24:48;;;;;;;6.00;1.88;;;0.80;1.00;;;;;;5073718;28;20296;-75
2021/04/06 00:27:17;;;;;;;5.60;2.00;;;0.80;1.00;;;;;;5086477;28;20232;-75
2021/04/06 00:29:47;;;;;;;4.75;1.30;;;0.80;1.00;;;;;;5048985;28;20219;-74
2021/04/06 00:32:16;;;;;;;6.65;2.00;;;0.70;1.00;;;;;;5068334;28;21059;-77
2021/04/06 00:34:44;;;;;;;3.63;1.85;;;0.70;1.00;;;;;;5091025;28;20222;-77
2021/04/06 00:37:16;;;;;;;3.35;2.10;;;0.70;1.00;;;;;;5067239;28;20216;-76
2021/04/06 00:39:43;;;;;;;8.00;3.78;;;0.70;1.00;;;;;;5087126;28;20219;-76
2021/04/06 00:42:11;;;;;;;5.78;1.63;;;0.70;1.00;;;;;;5077968;28;20247;-74
2021/04/06 00:44:42;;;;;;;7.72;1.85;;;0.70;1.00;;;;;;5080226;28;20326;-74
2021/04/06 00:47:12;;;;;;;9.68;2.25;;;0.70;1.00;;;;;;5072284;28;20642;-76
2021/04/06 00:49:40;;;;;;;3.60;1.30;;;0.60;1.00;;;;;;5084652;27;20572;-74
2021/04/06 00:52:07;;;;;;;4.72;2.13;;;0.60;1.00;;;;;;5061421;28;20234;-76
2021/04/06 00:54:35;;;;;;;5.57;1.70;;;0.60;1.00;;;;;;5088833;27;20311;-78
2021/04/06 00:57:04;;;;;;;6.03;1.70;;;0.60;1.00;;;;;;5069425;28;21076;-77
2021/04/06 00:59:32;;;;;;;3.25;1.70;;;0.60;1.00;;;;;;5088667;27;20400;-75
2021/04/06 01:02:01;;;;;;;7.90;2.00;;;0.60;1.00;;;;;;5066560;28;20329;-74
2021/04/06 01:04:33;;;;;;;4.75;1.77;;;0.60;1.00;;;;;;5087017;27;20821;-78
2021/04/06 01:07:07;;;;;;;5.63;1.75;;;0.60;1.00;;;;;;5069684;28;20224;-74
2021/04/06 01:09:40;;;;;;;6.47;2.53;;;0.60;1.00;;;;;;5077462;27;20235;-76
2021/04/06 01:12:10;;;;;;;3.83;1.60;;;0.60;1.00;;;;;;5066649;27;20270;-76
2021/04/06 01:14:37;;;;;;;3.42;1.65;;;0.50;1.00;;;;;;5083769;27;20219;-78
2021/04/06 01:17:05;;;;;;;6.13;2.10;;;0.50;1.00;;;;;;5078030;28;20762;-77
2021/04/06 01:19:34;;;;;;;6.05;2.35;;;0.50;1.00;;;;;;5100120;28;20252;-75
2021/04/06 01:22:04;;;;;;;8.55;1.85;;;0.60;1.00;;;;;;5063207;28;20247;-76
2021/04/06 01:24:31;;;;;;;6.28;1.88;;;0.60;1.00;;;;;;5075689;28;21172;-77
2021/04/06 01:26:59;;;;;;;4.20;1.67;;;0.50;1.00;;;;;;5077144;27;20228;-75
2021/04/06 01:29:26;;;;;;;8.57;1.95;;;0.50;1.00;;;;;;5077914;28;21122;-75
2021/04/06 01:31:54;;;;;;;3.30;1.90;;;0.50;1.00;;;;;;5088626;27;20955;-75
2021/04/06 01:34:20;;;;;;;5.32;2.00;;;0.50;1.00;;;;;;5076832;27;20315;-75
2021/04/06 01:36:47;;;;;;;4.57;1.98;;;0.50;1.00;;;;;;5091065;28;20235;-75
2021/04/06 01:39:15;;;;;;;4.13;2.80;;;0.50;1.00;;;;;;5054532;28;20817;-74
2021/04/06 01:41:45;;;;;;;6.00;2.00;;;0.40;1.00;;;;;;5085609;28;20227;-76
2021/04/06 01:44:12;;;;;;;3.50;2.28;;;0.50;1.00;;;;;;5077288;27;20472;-76
2021/04/06 01:46:43;;;;;;;4.68;1.92;;;0.40;1.00;;;;;;5084526;28;20224;-76
2021/04/06 01:49:10;;;;;;;4.97;2.10;;;0.40;1.00;;;;;;5069833;28;20220;-77
2021/04/06 01:51:37;;;;;;;5.72;2.33;;;0.50;1.00;;;;;;5067729;28;20238;-75
2021/04/06 01:54:05;;;;;;;7.40;2.58;;;0.50;1.00;;;;;;5079095;28;20226;-77
2021/04/06 01:56:36;;;;;;;4.75;2.40;;;0.50;1.00;;;;;;5083178;27;20222;-77
2021/04/06 01:59:06;;;;;;;5.03;2.00;;;0.50;1.00;;;;;;5068118;28;20303;-76
2021/04/06 02:01:33;;;;;;;3.92;2.13;;;0.50;1.00;;;;;;5083381;28;20343;-76
2021/04/06 02:04:01;;;;;;;7.43;2.63;;;0.60;1.00;;;;;;5069159;28;20247;-75
2021/04/06 02:06:30;;;;;;;3.10;1.90;;;0.60;1.00;;;;;;5084731;28;20243;-76
2021/04/06 02:08:58;;;;;;;10.30;2.60;;;0.60;1.00;;;;;;5071917;27;20223;-76
2021/04/06 02:11:27;;;;;;;6.57;2.58;;;0.60;1.00;;;;;;5083998;28;20270;-77
2021/04/06 02:14:04;;;;;;;5.07;2.25;;;0.50;1.00;;;;;;5063172;28;21504;-78
2021/04/06 02:16:51;;;;;;;3.25;1.70;;;0.60;1.00;;;;;;5068774;28;20631;-76
2021/04/06 02:19:28;;;;;;;6.40;1.95;;;0.50;1.00;;;;;;5069441;28;20227;-77
2021/04/06 02:21:56;;;;;;;2.63;2.38;;;0.60;1.00;;;;;;5083801;28;20225;-76
2021/04/06 02:24:36;;;;;;;6.15;2.10;;;0.60;1.00;;;;;;5069943;28;20226;-75
2021/04/06 02:27:10;;;;;;;3.50;2.22;;;0.60;1.00;;;;;;5071649;28;20777;-75
2021/04/06 02:29:42;;;;;;;3.72;2.30;;;0.60;1.00;;;;;;5067358;28;20216;-76
2021/04/06 02:32:10;;;;;;;3.83;3.42;;;0.60;1.00;;;;;;5071595;28;20224;-76
2021/04/06 02:34:41;;;;;;;8.38;2.55;;;0.60;1.00;;;;;;5073504;28;20338;-76
2021/04/06 02:37:13;;;;;;;4.82;1.95;;;0.60;1.00;;;;;;5085237;28;20276;-76
2021/04/06 02:39:39;;;;;;;4.70;2.13;;;0.60;1.00;;;;;;5073710;27;20342;-74
2021/04/06 02:42:26;;;;;;;6.28;2.13;;;0.50;1.00;;;;;;5081814;28;20809;-76
2021/04/06 02:45:08;;;;;;;5.38;2.50;;;0.60;1.00;;;;;;5078291;27;20483;-74
2021/04/06 02:47:36;;;;;;;4.45;2.60;;;0.50;1.00;;;;;;5096119;28;20307;-75
2021/04/06 02:50:05;;;;;;;2.78;2.38;;;0.50;1.00;;;;;;5076329;27;20219;-77
2021/04/06 02:52:32;;;;;;;6.20;2.00;;;0.50;1.00;;;;;;5087988;28;21090;-76
2021/04/06 02:54:59;;;;;;;6.15;3.20;;;0.50;1.00;;;;;;5076465;27;20227;-74
2021/04/06 02:57:26;;;;;;;8.90;3.00;;;0.50;1.00;;;;;;5070869;28;20666;-73
2021/04/06 02:59:53;;;;;;;5.78;2.97;;;0.50;1.00;;;;;;5107088;28;20224;-76
2021/04/06 03:02:21;;;;;;;5.40;4.30;;;0.50;1.00;;;;;;5089020;28;21824;-75
2021/04/06 03:04:49;;;;;;;3.83;2.45;;;0.50;1.00;;;;;;5110715;28;21204;-76
2021/04/06 03:07:21;;;;;;;8.33;2.60;;;0.50;1.00;;;;;;5077667;28;541479;-74
2021/04/06 03:09:52;;;;;;;5.50;2.50;;;0.40;1.00;;;;;;5106912;28;20293;-76
2021/04/06 03:12:18;;;;;;;3.47;2.65;;;0.40;1.00;;;;;;5092928;28;20238;-76
2021/04/06 03:14:48;;;;;;;3.97;2.40;;;0.50;1.00;;;;;;5109734;27;20225;-75
2021/04/06 03:17:15;;;;;;;3.40;2.45;;;0.50;1.00;;;;;;5089988;28;20232;-74
2021/04/06 03:19:43;;;;;;;9.65;3.03;;;0.50;1.00;;;;;;5102410;28;20219;-76
2021/04/06 03:22:10;;;;;;;5.85;2.70;;;0.40;1.00;;;;;;5091921;28;20235;-76
2021/04/06 03:24:38;;;;;;;5.55;2.75;;;0.40;1.00;;;;;;5083889;28;20243;-75
2021/04/06 03:27:08;;;;;;;4.00;2.25;;;0.40;1.00;;;;;;5093113;28;20228;-74
2021/04/06 03:29:35;;;;;;;6.90;2.63;;;0.40;1.00;;;;;;5090499;28;20227;-79
2021/04/06 03:32:06;;;;;;;3.53;2.50;;;0.40;1.00;;;;;;5092231;27;20227;-75
2021/04/06 03:34:35;;;;;;;4.70;3.22;;;0.40;1.00;;;;;;5086075;28;20227;-75
2021/04/06 03:37:04;;;;;;;12.20;3.65;;;0.40;1.00;;;;;;5072614;28;20244;-74
2021/04/06 03:39:33;;;;;;;6.97;3.78;;;0.40;1.00;;;;;;5101859;28;20261;-74
2021/04/06 03:41:59;;;;;;;4.32;3.05;;;0.30;1.00;;;;;;5087861;28;20827;-74
2021/04/06 03:44:28;;;;;;;4.82;3.00;;;0.30;1.00;;;;;;5085681;27;20231;-77
2021/04/06 03:47:02;;;;;;;4.22;3.50;;;0.30;1.00;;;;;;5090646;28;20231;-77
2021/04/06 03:49:30;;;;;;;5.57;3.22;;;0.20;1.00;;;;;;5071139;28;20236;-78
2021/04/06 03:51:58;;;;;;;6.00;2.97;;;0.20;1.00;;;;;;5089244;28;20235;-74
2021/04/06 03:54:44;;;;;;;6.57;4.75;;;0.20;1.00;;;;;;5068427;28;20219;-78
2021/04/06 03:57:35;;;;;;;4.55;3.00;;;0.20;1.00;;;;;;5072565;28;20227;-77
2021/04/06 04:00:05;;;;;;;5.15;2.97;;;0.20;1.00;;;;;;5087625;28;20722;-74
2021/04/06 04:02:34;;;;;;;7.10;3.13;;;0.20;1.00;;;;;;5088894;27;20232;-76
2021/04/06 04:05:02;;;;;;;8.98;4.28;;;0.20;1.00;;;;;;5070997;28;20249;-77
2021/04/06 04:07:32;;;;;;;8.23;3.20;;;0.20;1.00;;;;;;5084851;27;20808;-77
2021/04/06 04:09:58;;;;;;;6.10;4.00;;;0.20;1.00;;;;;;5072782;28;21458;-77
2021/04/06 04:12:27;;;;;;;6.00;3.63;;;0.10;1.00;;;;;;5087716;28;20232;-79
2021/04/06 04:14:58;;;;;;;8.18;4.25;;;0.10;1.00;;;;;;5076406;28;20217;-77
2021/04/06 04:17:24;;;;;;;7.10;4.15;;;0.10;1.00;;;;;;5071023;28;21111;-79
2021/04/06 04:19:50;;;;;;;7.93;4.30;;;0.10;1.00;;;;;;5073423;28;20216;-74
2021/04/06 04:22:17;;;;;;;5.65;3.50;;;0.10;1.00;;;;;;5085817;28;20228;-76
2021/04/06 04:24:43;;;;;;;6.35;4.15;;;0.00;1.00;;;;;;5076303;28;20248;-77
2021/04/06 04:27:10;;;;;;;5.43;3.83;;;0.00;1.00;;;;;;5095842;28;20227;-76
2021/04/06 04:29:36;;;;;;;5.03;3.70;;;0.00;1.00;;;;;;5074162;28;24331;-77
2021/04/06 04:32:14;;;;;;;9.77;4.75;;;0.10;1.00;;;;;;5089565;28;20219;-77
2021/04/06 04:34:44;;;;;;;5.03;4.00;;;0.00;1.00;;;;;;5085890;28;20215;-76
2021/04/06 04:37:10;;;;;;;6.88;3.90;;;0.10;1.00;;;;;;5102140;28;20234;-74
2021/04/06 04:39:36;;;;;;;6.97;4.38;;;0.00;1.00;;;;;;5078629;27;20220;-73
2021/04/06 04:42:03;;;;;;;5.75;4.07;;;0.00;1.00;;;;;;5087699;28;20235;-74
2021/04/06 04:44:36;;;;;;;8.73;4.00;;;0.00;1.00;;;;;;5080475;27;20216;-77
2021/04/06 04:47:03;;;;;;;6.85;4.70;;;0.00;1.00;;;;;;5096045;28;21342;-74
2021/04/06 04:49:29;;;;;;;8.70;4.85;;;0.00;1.00;;;;;;5090920;28;20231;-76
2021/04/06 04:51:56;;;;;;;5.00;3.60;;;-0.10;1.00;;;;;;5073737;28;20289;-75
2021/04/06 04:54:24;;;;;;;5.65;3.72;;;-0.10;1.00;;;;;;5094562;28;20231;-75
2021/04/06 04:56:50;;;;;;;8.48;3.95;;;-0.10;1.00;;;;;;5083689;27;20304;-76
2021/04/06 04:59:17;;;;;;;7.10;4.82;;;-0.10;1.00;;;;;;5075149;28;20228;-74
2021/04/06 05:01:44;;;;;;;6.60;4.57;;;0.00;1.00;;;;;;5080575;28;20234;-76
2021/04/06 05:04:10;;;;;;;6.65;4.00;;;0.00;1.00;;;;;;5098142;28;20395;-78
2021/04/06 05:06:36;;;;;;;12.70;5.28;;;0.00;1.00;;;;;;5073177;28;20288;-76
2021/04/06 05:09:05;;;;;;;8.57;3.95;;;0.00;1.00;;;;;;5098069;28;20238;-73
2021/04/06 05:11:31;;;;;;;7.35;3.75;;;0.00;1.00;;;;;;5080924;28;20289;-76
2021/04/06 05:13:58;;;;;;;8.38;4.32;;;0.10;1.00;;;;;;5095626;28;20208;-75
2021/04/06 05:16:25;;;;;;;7.93;4.32;;;0.10;1.00;;;;;;5075401;28;20244;-75
2021/04/06 05:18:52;;;;;;;6.82;3.85;;;0.10;1.00;;;;;;5095874;28;20245;-76
2021/04/06 05:21:18;;;;;;;13.15;8.35;;;0.10;1.00;;;;;;5073667;28;20310;-75
2021/04/06 05:23:45;;;;;;;6.78;5.00;;;0.20;1.00;;;;;;5068160;28;20227;-76
2021/04/06 05:26:14;;;;;;;7.90;4.40;;;0.20;1.00;;;;;;5081133;28;20306;-79
2021/04/06 05:28:40;;;;;;;6.05;4.00;;;0.30;1.00;;;;;;5088071;28;20231;-79
2021/04/06 05:31:06;;;;;;;7.47;4.75;;;0.20;1.00;;;;;;5070987;28;20227;-78
2021/04/06 05:33:33;;;;;;;4.82;4.05;;;0.30;1.00;;;;;;5078948;28;21241;-80
2021/04/06 05:36:00;;;;;;;4.47;3.38;;;0.40;1.00;;;;;;5092029;27;20228;-79
2021/04/06 05:38:26;;;;;;;9.32;4.65;;;0.40;1.00;;;;;;5082494;28;20227;-79
2021/04/06 05:40:53;;;;;;;26.35;14.73;;;0.50;1.00;;;;;;5068917;28;20239;-79
2021/04/06 05:43:20;;;;;;;5.03;3.75;;;0.60;1.00;;;;;;5078170;28;20608;-80
2021/04/06 05:45:52;;;;;;;9.27;3.90;;;0.60;1.00;;;;;;5088311;28;20224;-79
2021/04/06 05:48:21;;;;;;;9.07;4.55;;;0.60;1.00;;;;;;5075578;28;20223;-77
2021/04/06 05:50:53;;;;;;;9.68;5.07;;;0.70;1.00;;;;;;5089388;28;20232;-79
2021/04/06 05:53:21;;;;;;;7.53;4.43;;;0.80;1.00;;;;;;5070948;27;20224;-78
2021/04/06 05:55:47;;;;;;;9.13;4.30;;;0.90;1.00;;;;;;5094225;28;20220;-78
2021/04/06 05:58:13;;;;;;;9.52;5.93;;;0.90;1.00;;;;;;5078681;27;20231;-79
2021/04/06 06:00:40;;;;;;;8.38;3.53;;;1.10;1.00;;;;;;5091536;28;20288;-79
2021/04/06 06:03:07;;;;;;;9.13;4.88;;;1.10;1.00;;;;;;5081838;28;20259;-79
2021/04/06 06:05:34;;;;;;;9.10;4.90;;;1.30;1.00;;;;;;5091253;28;20227;-79
2021/04/06 06:08:07;;;;;;;5.65;3.35;;;1.40;1.00;;;;;;5078543;28;20219;-78
2021/04/06 06:10:35;;;;;;;6.18;4.13;;;1.40;1.00;;;;;;5090427;27;20220;-79
2021/04/06 06:13:19;;;;;;;13.70;4.60;;;1.50;1.00;;;;;;5083954;28;20385;-81
2021/04/06 06:16:08;;;;;;;8.98;4.20;;;1.50;1.00;;;;;;5105523;28;20280;-76
2021/04/06 06:18:55;;;;;;;7.60;4.25;;;1.50;1.00;;;;;;5086072;28;20429;-73
2021/04/06 06:21:22;;;;;;;6.82;4.18;;;1.50;1.00;;;;;;5095807;27;20227;-77
2021/04/06 06:23:48;;;;;;;6.60;3.97;;;1.50;1.00;;;;;;5072529;28;20246;-78
2021/04/06 06:26:17;;;;;;;5.70;4.10;;;1.60;1.00;;;;;;5087437;28;20225;-75
2021/04/06 06:29:07;;;;;;;10.25;4.22;;;1.70;1.00;;;;;;5057831;28;21574;-76
2021/04/06 06:31:36;;;;;;;7.45;4.88;;;1.80;1.00;;;;;;5086035;27;20219;-75
2021/04/06 06:34:27;;;;;;;11.10;4.13;;;1.80;1.00;;;;;;5073929;27;20576;-77
2021/04/06 06:37:16;;;;;;;8.07;3.92;;;1.90;1.00;;;;;;5088953;28;20216;-77
2021/04/06 06:39:49;;;;;;;4.78;3.70;;;2.00;1.00;;;;;;5069756;27;20255;-77
2021/04/06 06:42:21;;;;;;;9.18;4.53;;;2.10;1.00;;;;;;5085601;28;20231;-78
2021/04/06 06:44:50;;;;;;;15.55;14.20;;;2.10;1.00;;;;;;5056056;27;20283;-77
2021/04/06 06:47:21;;;;;;;7.18;4.07;;;2.20;1.00;;;;;;5085153;28;20518;-74
2021/04/06 06:49:53;;;;;;;5.95;4.03;;;2.20;1.00;;;;;;5055486;28;20219;-77
2021/04/06 06:52:31;;;;;;;5.30;3.75;;;2.30;1.00;;;;;;5090311;27;20321;-78
2021/04/06 06:55:15;;;;;;;4.57;3.67;;;2.30;1.00;;;;;;5062747;28;20429;-74
2021/04/06 06:57:42;;;;;;;4.70;3.88;;;2.30;1.00;;;;;;5090191;28;20348;-79
2021/04/06 07:00:11;;;;;;;6.28;4.03;;;2.40;1.00;;;;;;5085871;28;20216;-77
2021/04/06 07:02:38;;;;;;;6.00;4.45;;;2.40;1.00;;;;;;5091305;28;20327;-77
2021/04/06 07:05:20;;;;;;;7.78;3.72;;;2.50;1.00;;;;;;5072882;28;20219;-78
2021/04/06 07:07:57;;;;;;;6.63;3.95;;;2.80;1.00;;;;;;5094707;27;20235;-77
2021/04/06 07:10:26;;;;;;;9.18;4.82;;;3.00;1.00;;;;;;5088245;27;20287;-78
2021/04/06 07:13:03;;;;;;;7.25;4.07;;;3.10;1.00;;;;;;5083018;28;20238;-77
2021/04/06 07:15:35;;;;;;;6.60;4.30;;;3.20;1.00;;;;;;5082012;27;20655;-81
2021/04/06 07:18:06;;;;;;;6.10;3.83;;;3.30;1.00;;;;;;5105543;28;20263;-79
2021/04/06 07:20:39;;;;;;;7.38;3.15;;;3.40;1.00;;;;;;5085170;28;20223;-75
2021/04/06 07:23:09;;;;;;;4.80;3.30;;;3.60;1.00;;;;;;5095480;28;20228;-75
2021/04/06 07:25:36;;;;;;;13.68;3.95;;;3.60;1.00;;;;;;5099625;28;20216;-76
2021/04/06 07:28:04;;;;;;;6.78;3.80;;;3.60;1.00;;;;;;5092247;28;20231;-76
2021/04/06 07:30:33;;;;;;;6.55;3.70;;;3.60;1.00;;;;;;5094594;28;20280;-79
2021/04/06 07:33:01;;;;;;;8.45;3.58;;;3.70;1.00;;;;;;5067416;27;20227;-78
2021/04/06 07:35:28;;;;;;;3.83;3.33;;;3.80;1.00;;;;;;5103349;27;20308;-79
2021/04/06 07:37:54;;;;;;;5.57;3.60;;;3.80;1.00;;;;;;5082177;28;21402;-78
2021/04/06 07:40:27;;;;;;;10.88;4.80;;;3.90;1.00;;;;;;5090373;28;20234;-76
2021/04/06 07:42:54;;;;;;;6.68;4.90;;;4.00;1.00;;;;;;5076957;28;20223;-78
2021/04/06 07:45:42;;;;;;;5.80;3.40;;;4.20;1.00;;;;;;5092816;28;20220;-76
2021/04/06 07:48:35;;;;;;;9.82;4.00;;;4.40;1.00;;;;;;5088284;28;20223;-75
2021/04/06 07:51:24;;;;;;;4.40;3.33;;;4.40;1.00;;;;;;5101191;27;20224;-79
2021/04/06 07:53:59;;;;;;;4.68;3.53;;;4.60;1.00;;;;;;5081480;28;20918;-77
2021/04/06 07:56:45;;;;;;;9.77;4.07;;;4.50;1.00;;;;;;5111852;28;20222;-76
2021/04/06 07:59:42;;;;;;;5.80;3.90;;;4.30;1.00;;;;;;5073398;28;20347;-76
2021/04/06 08:02:29;;;;;;;10.98;4.28;;;4.40;1.00;;;;;;5084717;28;20279;-76
2021/04/06 08:05:00;;;;;;;6.72;4.15;;;4.80;1.00;;;;;;5081485;28;20224;-80
2021/04/06 08:07:31;;;;;;;7.97;4.32;;;5.00;1.00;;;;;;5081489;28;20318;-75
2021/04/06 08:09:59;;;;;;;7.32;4.30;;;5.10;1.00;;;;;;5095822;28;20231;-75
2021/04/06 08:12:28;;;;;;;4.82;3.80;;;5.30;1.00;;;;;;5081570;28;20695;-77
2021/04/06 08:14:59;;;;;;;6.78;4.15;;;5.50;1.00;;;;;;5086442;27;20220;-78
2021/04/06 08:17:45;;;;;;;4.85;4.05;;;5.50;1.00;;;;;;5095101;28;20302;-76
2021/04/06 08:20:36;;;;;;;6.38;3.50;;;5.30;1.00;;;;;;5087273;28;20222;-76
2021/04/06 08:23:07;;;;;;;6.90;4.22;;;5.30;1.00;;;;;;5087664;28;20272;-76
2021/04/06 08:25:51;;;;;;;4.18;3.55;;;5.10;1.00;;;;;;5106462;28;20230;-76
2021/04/06 08:28:41;;;;;;;10.13;4.20;;;5.10;1.00;;;;;;5082611;28;20358;-77
2021/04/06 08:31:29;;;;;;;7.95;4.22;;;5.20;1.00;;;;;;5087782;28;20300;-75
2021/04/06 08:34:26;;;;;;;19.55;7.72;;;5.20;1.00;;;;;;5073945;28;20222;-74
2021/04/06 08:37:15;;;;;;;9.32;6.45;;;5.40;1.00;;;;;;5086413;28;20382;-77
2021/04/06 08:39:45;;;;;;;7.70;5.72;;;5.60;1.00;;;;;;5077647;28;20216;-77
2021/04/06 08:42:17;;;;;;;9.27;4.82;;;5.70;1.00;;;;;;5084266;27;20409;-77
2021/04/06 08:44:48;;;;;;;9.38;5.28;;;5.70;1.00;;;;;;5070777;27;20259;-79
2021/04/06 08:47:41;;;;;;;10.50;4.85;;;5.90;1.00;;;;;;5089977;28;20222;-81
2021/04/06 08:50:11;;;;;;;10.75;5.72;;;6.30;1.00;;;;;;5077932;28;20608;-79
2021/04/06 08:52:37;;;;;;;6.60;3.50;;;6.30;1.00;;;;;;5088790;28;20224;-80
2021/04/06 08:55:09;;;;;;;8.20;4.60;;;6.10;1.00;;;;;;5061737;28;20324;-82
2021/04/06 08:57:36;;;;;;;6.65;4.05;;;6.00;1.00;;;;;;5090128;28;20251;-78
2021/04/06 09:00:12;;;;;;;6.55;4.15;;;6.00;1.00;;;;;;5058941;28;21258;-80
2021/04/06 09:02:41;;;;;;;7.72;3.33;;;5.80;1.00;;;;;;5098443;28;20231;-80
2021/04/06 09:05:10;;;;;;;9.38;4.10;;;5.80;1.00;;;;;;5084931;28;20219;-80
2021/04/06 09:07:38;;;;;;;7.18;4.65;;;5.90;1.00;;;;;;5086322;27;20249;-81
2021/04/06 09:10:08;;;;;;;10.63;4.85;;;5.90;1.00;;;;;;5075612;27;20260;-78
2021/04/06 09:12:35;;;;;;;11.15;4.10;;;5.60;1.00;;;;;;5090469;27;20308;-79
2021/04/06 09:15:03;;;;;;;10.30;4.45;;;5.50;1.00;;;;;;5077271;28;20228;-78
2021/04/06 09:17:32;;;;;;;6.72;4.20;;;5.50;1.00;;;;;;5089871;28;20336;-78
2021/04/06 09:19:59;;;;;;;8.23;4.25;;;5.40;1.00;;;;;;5093860;27;20224;-80
2021/04/06 09:22:31;;;;;;;7.72;5.05;;;5.40;1.00;;;;;;5087760;28;20312;-81
2021/04/06 09:24:58;;;;;;;6.85;4.18;;;5.50;1.00;;;;;;5079914;28;20283;-81
2021/04/06 09:27:25;;;;;;;8.13;4.50;;;5.50;1.00;;;;;;5085130;28;20219;-80
2021/04/06 09:29:52;;;;;;;10.05;3.15;;;5.60;1.00;;;;;;5102733;27;21912;-79
2021/04/06 09:32:26;;;;;;;9.55;4.25;;;6.00;1.00;;;;;;5084496;28;21995;-79
2021/04/06 09:34:52;;;;;;;7.43;4.28;;;7.30;1.00;;;;;;5098825;28;20257;-79
2021/04/06 09:37:21;;;;;;;7.90;3.33;;;8.00;1.00;;;;;;5100366;28;20207;-79
2021/04/06 09:39:50;;;;;;;10.75;5.13;;;8.10;1.00;;;;;;5099260;28;20270;-79
2021/04/06 09:42:22;;;;;;;13.82;5.15;;;7.80;1.00;;;;;;5087651;27;20239;-80
2021/04/06 09:44:52;;;;;;;5.63;3.33;;;7.20;1.00;;;;;;5080815;28;20224;-79
2021/04/06 09:47:21;;;;;;;5.65;3.72;;;6.80;1.00;;;;;;5069164;28;20232;-80
2021/04/06 09:49:50;;;;;;;8.75;4.68;;;6.50;1.00;;;;;;5095335;28;20698;-78
2021/04/06 09:52:21;;;;;;;9.60;4.05;;;6.30;1.00;;;;;;5082942;28;20222;-79
2021/04/06 09:54:59;;;;;;;8.20;4.70;;;6.20;1.00;;;;;;5094929;27;20224;-84
2021/04/06 09:57:32;;;;;;;7.90;3.88;;;6.30;1.00;;;;;;5061050;28;20238;-77
2021/04/06 09:59:59;;;;;;;11.32;3.78;;;6.80;1.00;;;;;;5070070;28;20265;-79
2021/04/06 10:02:31;;;;;;;8.38;3.92;;;7.70;1.00;;;;;;5055375;28;20236;-78
2021/04/06 10:05:00;;;;;;;6.50;4.47;;;8.40;1.00;;;;;;5088338;28;20216;-78
2021/04/06 10:07:28;;;;;;;7.07;3.88;;;8.80;1.00;;;;;;5077774;28;20228;-79
2021/04/06 10:09:57;;;;;;;5.70;3.10;;;9.00;1.00;;;;;;5088697;28;20258;-79
2021/04/06 10:12:28;;;;;;;6.72;4.63;;;8.70;1.00;;;;;;5078766;27;20324;-78
2021/04/06 10:14:55;;;;;;;8.18;4.05;;;8.70;1.00;;;;;;5089173;27;20320;-78
2021/04/06 10:17:24;;;;;;;6.25;3.45;;;9.50;1.00;;;;;;5079896;28;20232;-80
2021/04/06 10:19:58;;;;;;;3.88;3.13;;;9.20;1.00;;;;;;5108644;28;20211;-80
2021/04/06 10:22:28;;;;;;;4.63;3.30;;;8.40;1.00;;;;;;5108140;27;20240;-82
2021/04/06 10:24:59;;;;;;;9.65;3.38;;;8.10;1.00;;;;;;5110081;28;20242;-81
2021/04/06 10:27:27;;;;;;;5.43;3.45;;;8.10;1.00;;;;;;5092979;28;20232;-81
2021/04/06 10:29:56;;;;;;;7.10;3.35;;;8.20;1.00;;;;;;5111628;28;20311;-80
2021/04/06 10:32:30;;;;;;;5.82;3.20;;;8.60;1.00;;;;;;5116925;28;20212;-82
2021/04/06 10:35:09;;;;;;;3.55;2.05;;;8.60;1.00;;;;;;5104466;28;20279;-81
2021/04/06 10:37:44;;;;;;;7.65;3.25;;;8.30;1.00;;;;;;5119522;28;20223;-81
2021/04/06 10:40:37;;;;;;;7.35;3.00;;;9.90;1.00;;;;;;5105408;28;20665;-81
2021/04/06 10:43:08;;;;;;;6.10;2.50;;;10.20;1.00;;;;;;5118597;28;20783;-80
2021/04/06 10:45:36;;;;;;;6.80;4.65;;;9.00;1.00;;;;;;5102332;28;20228;-81
2021/04/06 10:48:13;;;;;;;5.43;2.80;;;8.10;1.00;;;;;;5101034;28;20227;-81
2021/04/06 10:50:46;;;;;;;10.60;3.50;;;7.50;1.00;;;;;;5101044;28;20303;-81
2021/04/06 10:53:22;;;;;;;6.22;3.30;;;6.90;1.00;;;;;;5106201;27;20233;-80
2021/04/06 10:55:53;;;;;;;5.20;2.70;;;6.70;1.00;;;;;;5096451;28;20227;-81
2021/04/06 10:58:28;;;;;;;9.15;4.10;;;7.70;1.00;;;;;;5103832;27;20228;-83
2021/04/06 11:01:00;;;;;;;8.50;3.50;;;9.10;1.00;;;;;;5076425;28;20289;-82
2021/04/06 11:03:37;;;;;;;6.65;3.55;;;9.10;1.00;;;;;;5114190;27;20227;-80
2021/04/06 11:06:15;;;;;;;7.75;2.92;;;8.50;1.00;;;;;;5101653;28;20219;-82
2021/04/06 11:08:49;;;;;;;8.13;3.63;;;7.80;1.00;;;;;;5105549;27;20318;-81
2021/04/06 11:11:26;;;;;;;8.32;3.00;;;7.30;1.00;;;;;;5095180;27;20239;-82
2021/04/06 11:13:55;;;;;;;5.55;3.45;;;8.10;1.00;;;;;;5108269;28;20210;-82
2021/04/06 11:16:25;;;;;;;7.50;2.80;;;10.20;1.00;;;;;;5103399;28;20216;-81
2021/04/06 11:19:04;;;;;;;8.90;7.17;;;12.40;1.00;;;;;;5119468;27;20438;-82
2021/04/06 11:21:32;;;;;;;10.67;4.07;;;12.00;1.00;;;;;;5070601;28;20463;-81
2021/04/06 11:23:58;;;;;;;12.03;8.50;;;11.60;1.00;;;;;;5106106;28;21425;-81
2021/04/06 11:26:26;;;;;;;9.70;6.93;;;12.60;1.00;;;;;;5092476;28;20422;-84
2021/04/06 11:28:53;;;;;;;14.80;11.10;;;12.60;1.00;;;;;;5103588;27;20450;-81
2021/04/06 11:31:24;;;;;;;9.63;5.90;;;12.60;1.00;;;;;;5100695;28;20469;-81
2021/04/06 11:33:51;;;;;;;8.73;3.90;;;11.50;1.00;;;;;;5111600;28;20454;-81
2021/04/06 11:36:19;;;;;;;5.47;3.07;;;11.40;1.00;;;;;;5104273;28;20468;-79
2021/04/06 11:38:46;;;;;;;10.17;3.77;;;11.60;1.00;;;;;;5112088;28;20900;-80
2021/04/06 11:41:13;;;;;;;7.63;3.20;;;12.50;1.00;;;;;;5098370;27;20433;-79
2021/04/06 11:43:40;;;;;;;3.93;2.30;;;12.70;1.00;;;;;;5108644;28;20464;-81
2021/04/06 11:46:07;;;;;;;4.27;2.63;;;13.00;1.00;;;;;;5088605;28;21328;-81
2021/04/06 11:48:33;;;;;;;4.47;2.30;;;14.40;1.00;;;;;;5100668;28;20424;-79
2021/04/06 11:50:59;;;;;;;3.80;2.43;;;15.90;1.00;;;;;;5095208;28;20477;-80
2021/04/06 11:53:25;;;;;;;3.63;2.50;;;16.80;1.00;;;;;;5098891;27;20526;-81
2021/04/06 11:55:52;;;;;;;4.93;2.67;;;16.60;1.00;;;;;;5102488;27;20455;-77
2021/04/06 11:58:18;;;;;;;5.10;2.57;;;16.10;1.00;;;;;;5084892;28;20507;-79
2021/04/06 12:00:46;;;;;;;2.47;2.17;;;14.40;1.00;;;;;;5111469;28;20490;-82
2021/04/06 12:03:13;;;;;;;3.60;1.90;;;12.50;1.00;;;;;;5078400;28;20447;-81
2021/04/06 12:05:40;;;;;;;4.45;2.70;;;11.20;1.00;;;;;;5105569;28;20468;-82
2021/04/06 12:08:07;;;;;;;5.88;2.40;;;10.20;1.00;;;;;;5090500;28;20232;-80
2021/04/06 12:10:35;;;;;;;9.48;3.53;;;9.60;1.00;;;;;;5090529;28;20219;-80
2021/04/06 12:13:01;;;;;;;3.87;1.80;;;10.10;1.00;;;;;;5077432;28;20259;-80
2021/04/06 12:15:30;;;;;;;3.27;1.80;;;10.30;1.00;;;;;;5100507;27;20469;-81
2021/04/06 12:17:57;;;;;;;3.90;2.90;;;11.60;1.00;;;;;;5086583;27;20898;-80
2021/04/06 12:20:24;;;;;;;4.67;2.17;;;12.20;1.00;;;;;;5104115;28;20458;-80
2021/04/06 12:22:52;;;;;;;4.20;2.27;;;11.80;1.00;;;;;;5078772;28;20527;-82
2021/04/06 12:25:19;;;;;;;4.37;2.50;;;11.10;1.00;;;;;;5091356;28;21078;-79
2021/04/06 12:27:46;;;;;;;8.18;2.97;;;10.00;1.00;;;;;;5097087;28;20440;-80
2021/04/06 12:30:16;;;;;;;3.85;2.03;;;9.00;1.00;;;;;;5104616;28;20644;-81
2021/04/06 12:32:46;;;;;;;6.72;3.30;;;9.40;1.00;;;;;;5093401;28;20232;-80
2021/04/06 12:35:14;;;;;;;5.30;2.50;;;11.30;1.00;;;;;;5114425;28;20348;-78
2021/04/06 12:37:41;;;;;;;4.72;2.30;;;11.30;1.00;;;;;;5110235;28;20445;-82
2021/04/06 12:40:08;;;;;;;6.87;2.80;;;10.70;1.00;;;;;;5107600;28;20230;-80
2021/04/06 12:42:35;;;;;;;2.90;2.07;;;10.30;1.00;;;;;;5110006;28;20471;-81
2021/04/06 12:45:01;;;;;;;3.73;2.60;;;10.90;1.00;;;;;;5098038;28;20462;-79
2021/04/06 12:47:28;;;;;;;6.43;3.50;;;13.50;1.00;;;;;;5110012;28;20461;-82
2021/04/06 12:49:54;;;;;;;7.17;1.97;;;15.30;1.00;;;;;;5094103;28;21138;-80
2021/04/06 12:52:21;;;;;;;4.33;1.83;;;16.90;1.00;;;;;;5105534;27;20464;-82
2021/04/06 12:54:50;;;;;;;3.07;1.70;;;18.50;1.00;;;;;;5098167;27;21292;-81
2021/04/06 12:57:16;;;;;;;2.90;2.03;;;18.80;1.00;;;;;;5115518;28;20443;-82
2021/04/06 12:59:44;;;;;;;3.20;2.10;;;19.30;1.00;;;;;;5108409;28;20468;-81
2021/04/06 13:02:10;;;;;;;4.30;2.03;;;20.20;1.00;;;;;;5106808;28;20464;-82
2021/04/06 13:04:37;;;;;;;2.90;1.90;;;20.20;1.00;;;;;;5107091;28;20469;-82
2021/04/06 13:07:03;;;;;;;6.33;1.77;;;18.90;1.00;;;;;;5101402;28;20443;-83
2021/04/06 13:09:31;;;;;;;5.07;2.30;;;17.20;1.00;;;;;;5110930;28;20446;-79
2021/04/06 13:11:58;;;;;;;3.30;1.90;;;15.40;1.00;;;;;;5127963;27;20488;-80
2021/04/06 13:14:25;;;;;;;5.63;2.80;;;13.80;1.00;;;;;;5119117;27;20434;-80
2021/04/06 13:16:57;;;;;;;3.13;2.00;;;12.50;1.00;;;;;;5110594;27;20432;-82
2021/04/06 13:19:24;;;;;;;3.30;1.67;;;12.40;1.00;;;;;;5118968;27;22117;-80
2021/04/06 13:21:50;;;;;;;3.37;1.40;;;14.30;1.00;;;;;;5122609;27;20478;-80
2021/04/06 13:24:21;;;;;;;5.00;1.70;;;16.10;1.00;;;;;;5127444;27;21074;-79